Time;durP1;ratioP1;P1;durP2;ratioP2;P2;SDS_P1;SDS_P2;PMS_P1;PMS_P2;Temp;Humidity;BMP_temperature;BMP_pressure;BME280_temperature;BME280_humidity;BME280_pressure;Samples;Min_cycle;Max_cycle;Signal;HPM_P1;HPM_P2
2023/10/07 00:01:22;;;;;;;4.63;2.40;;;;;;;11.18;61.75;95711.88;5082730;28;20094;-72
2023/10/07 00:03:49;;;;;;;3.97;2.30;;;;;;;11.17;62.13;95709.38;5088063;28;20032;-72
2023/10/07 00:06:16;;;;;;;5.53;2.45;;;;;;;10.99;62.79;95705.50;5076150;28;20033;-72
2023/10/07 00:08:42;;;;;;;5.70;2.58;;;;;;;10.98;62.24;95704.66;5091928;28;20099;-72
2023/10/07 00:11:11;;;;;;;5.93;2.50;;;;;;;11.07;62.06;95693.63;5086698;28;20028;-72
2023/10/07 00:13:41;;;;;;;4.80;2.58;;;;;;;10.96;61.78;95675.34;5080452;28;20036;-71
2023/10/07 00:16:06;;;;;;;4.00;2.40;;;;;;;10.94;62.08;95687.63;5072334;28;20119;-73
2023/10/07 00:18:34;;;;;;;4.43;2.63;;;;;;;10.89;61.96;95685.34;5080488;28;20463;-73
2023/10/07 00:21:02;;;;;;;7.35;3.72;;;;;;;11.03;61.74;95697.38;5071704;28;20037;-75
2023/10/07 00:23:28;;;;;;;7.57;4.38;;;;;;;10.82;61.82;95652.91;5071463;28;20032;-72
2023/10/07 00:25:55;;;;;;;4.50;2.50;;;;;;;10.88;62.04;95673.28;5084643;28;20521;-75
2023/10/07 00:28:28;;;;;;;4.07;2.33;;;;;;;10.85;62.31;95675.28;5068781;28;20117;-75
2023/10/07 00:30:55;;;;;;;4.45;2.53;;;;;;;10.93;62.04;95680.75;5091409;28;20036;-75
2023/10/07 00:33:21;;;;;;;5.00;2.50;;;;;;;10.95;61.67;95694.50;5079770;28;20035;-76
2023/10/07 00:35:53;;;;;;;5.88;2.35;;;;;;;10.94;61.55;95687.63;5072064;28;20117;-75
2023/10/07 00:38:22;;;;;;;4.82;2.67;;;;;;;10.80;61.84;95664.38;5092715;28;20032;-73
2023/10/07 00:40:54;;;;;;;4.38;2.58;;;;;;;10.80;62.09;95675.59;5088558;28;20040;-73
2023/10/07 00:43:26;;;;;;;4.68;2.42;;;;;;;10.81;62.55;95679.88;5074862;28;20105;-73
2023/10/07 00:48:45;;;;;;;3.78;2.45;;;;;;;10.91;61.86;95674.84;5073615;28;20498;-74
2023/10/07 00:51:11;;;;;;;5.22;2.55;;;;;;;10.80;61.58;95667.78;5074141;28;20036;-73
2023/10/07 00:53:46;;;;;;;4.15;2.50;;;;;;;10.90;61.73;95666.22;5071480;28;20067;-74
2023/10/07 00:56:13;;;;;;;4.22;2.40;;;;;;;10.76;61.69;95652.53;5078553;28;20044;-73
2023/10/07 00:58:41;;;;;;;5.30;2.67;;;;;;;10.72;62.14;95657.09;5058874;28;20039;-74
2023/10/07 01:01:12;;;;;;;2.97;2.20;;;;;;;10.74;61.83;95661.25;5090505;28;20439;-74
2023/10/07 01:03:51;;;;;;;3.70;2.28;;;;;;;10.76;62.16;95660.34;5070885;28;20028;-74
2023/10/07 01:06:25;;;;;;;4.88;2.72;;;;;;;10.61;62.45;95642.25;5085791;28;20065;-74
2023/10/07 01:08:58;;;;;;;4.63;2.65;;;;;;;10.55;62.46;95611.50;5067308;28;20032;-74
2023/10/07 01:11:24;;;;;;;6.18;2.95;;;;;;;10.87;62.36;95653.44;5088316;28;20036;-74
2023/10/07 01:13:56;;;;;;;5.10;2.78;;;;;;;10.74;62.59;95655.22;5088835;28;20072;-74
2023/10/07 01:16:31;;;;;;;5.68;2.50;;;;;;;10.69;62.92;95647.75;5088079;28;20028;-74
2023/10/07 01:21:50;;;;;;;5.20;2.60;;;;;;;10.60;63.25;95639.78;5075667;28;20571;-73
2023/10/07 01:24:23;;;;;;;4.65;2.30;;;;;;;10.67;62.85;95657.44;5090091;28;20482;-74
2023/10/07 01:26:48;;;;;;;4.50;2.63;;;;;;;10.63;63.47;95658.56;5087816;28;20042;-74
2023/10/07 01:29:15;;;;;;;4.82;2.60;;;;;;;10.53;62.85;95639.38;5081047;28;20036;-74
2023/10/07 01:31:59;;;;;;;3.75;2.53;;;;;;;10.61;63.04;95655.25;5087397;28;20043;-74
2023/10/07 01:34:34;;;;;;;4.47;2.63;;;;;;;10.46;63.38;95646.75;5075746;28;20027;-74
2023/10/07 01:37:03;;;;;;;4.22;2.60;;;;;;;10.61;63.32;95659.63;5068107;28;20088;-74
2023/10/07 01:39:39;;;;;;;4.63;2.47;;;;;;;10.49;63.25;95649.13;5072147;28;20032;-74
2023/10/07 01:42:06;;;;;;;4.75;2.60;;;;;;;10.49;63.29;95662.13;5081526;28;20066;-74
2023/10/07 01:44:32;;;;;;;4.65;2.75;;;;;;;10.46;63.25;95656.31;5061677;28;20039;-74
2023/10/07 01:46:57;;;;;;;5.47;2.65;;;;;;;10.43;63.69;95644.38;5085650;28;20114;-74
2023/10/07 01:49:23;;;;;;;6.00;2.90;;;;;;;10.47;63.71;95670.97;5066085;28;20131;-74
2023/10/07 01:51:52;;;;;;;5.72;3.30;;;;;;;10.46;63.99;95661.50;5084955;28;20426;-74
2023/10/07 01:54:19;;;;;;;4.88;3.25;;;;;;;10.26;64.41;95657.66;5086574;28;20145;-74
2023/10/07 01:56:47;;;;;;;5.13;3.05;;;;;;;10.23;64.72;95670.84;5052731;28;20133;-74
2023/10/07 02:01:47;;;;;;;4.95;2.78;;;;;;;10.28;64.17;95664.44;5088269;28;20094;-74
2023/10/07 02:04:46;;;;;;;3.80;2.55;;;;;;;10.38;63.63;95662.03;5059681;28;20036;-75
2023/10/07 02:07:04;;;;;;;4.43;2.75;;;;;;;10.25;63.85;95658.56;5071328;28;20049;-74
2023/10/07 02:09:36;;;;;;;3.90;2.45;;;;;;;10.23;63.86;95650.09;5079772;28;20043;-74
2023/10/07 02:12:11;;;;;;;4.00;2.63;;;;;;;10.26;63.80;95640.31;5069995;28;20513;-74
2023/10/07 02:14:37;;;;;;;4.93;2.72;;;;;;;10.24;63.53;95626.59;5078245;28;20504;-74
2023/10/07 02:17:02;;;;;;;3.97;2.42;;;;;;;10.18;63.64;95632.22;5049043;28;20032;-74
2023/10/07 02:19:34;;;;;;;3.95;2.65;;;;;;;10.12;64.24;95637.00;5058389;28;20111;-74
2023/10/07 02:22:03;;;;;;;4.20;2.80;;;;;;;10.15;64.05;95637.63;5051964;28;20070;-74
2023/10/07 02:24:32;;;;;;;6.22;3.20;;;;;;;10.03;64.22;95630.66;5076307;28;20020;-74
2023/10/07 02:27:16;;;;;;;6.18;2.50;;;;;;;10.10;64.19;95636.25;5059520;28;20048;-73
2023/10/07 02:29:43;;;;;;;4.55;2.50;;;;;;;10.03;64.62;95638.47;5085611;28;20448;-74
2023/10/07 02:32:12;;;;;;;6.80;2.92;;;;;;;9.95;64.99;95643.34;5089902;28;20474;-74
2023/10/07 02:34:51;;;;;;;5.00;3.20;;;;;;;9.94;64.92;95639.88;5079624;28;20058;-74
2023/10/07 02:37:21;;;;;;;5.93;3.10;;;;;;;10.03;64.92;95649.66;5089333;28;20031;-74
2023/10/07 02:39:50;;;;;;;5.72;3.53;;;;;;;9.74;66.77;95658.56;5085396;28;20032;-74
2023/10/07 02:42:22;;;;;;;6.53;3.30;;;;;;;9.74;66.43;95649.00;5089117;28;20166;-74
2023/10/07 02:45:20;;;;;;;7.50;3.53;;;;;;;9.77;66.45;95653.16;5089983;28;20051;-74
2023/10/07 02:47:53;;;;;;;6.35;3.58;;;;;;;9.86;66.36;95657.72;5092658;28;20065;-74
2023/10/07 02:50:19;;;;;;;5.60;3.75;;;;;;;9.59;66.64;95658.63;5093782;28;20028;-74
2023/10/07 02:52:47;;;;;;;7.25;4.45;;;;;;;9.50;66.89;95653.19;5075724;28;20032;-74
2023/10/07 02:55:28;;;;;;;6.93;3.97;;;;;;;9.23;66.72;95609.19;5089710;28;20027;-74
2023/10/07 02:57:56;;;;;;;7.32;4.18;;;;;;;9.65;66.42;95644.44;5079206;28;20039;-74
2023/10/07 03:00:49;;;;;;;6.32;3.88;;;;;;;9.63;66.31;95641.91;5071914;28;20048;-74
2023/10/07 03:05:46;;;;;;;4.00;3.00;;;;;;;9.28;67.46;95623.50;5092156;28;20545;-74
2023/10/07 03:08:19;;;;;;;4.00;2.95;;;;;;;9.22;67.72;95629.09;5093419;28;20482;-74
2023/10/07 03:11:03;;;;;;;5.15;3.13;;;;;;;9.29;67.89;95639.88;5071349;28;20024;-74
2023/10/07 03:13:29;;;;;;;6.30;2.80;;;;;;;9.29;68.07;95635.53;5093473;28;20032;-74
2023/10/07 03:18:38;;;;;;;4.88;3.17;;;;;;;9.24;68.96;95649.72;5093254;28;20362;-74
2023/10/07 03:21:10;;;;;;;7.68;3.88;;;;;;;9.09;69.31;95656.72;5072597;28;20510;-74
2023/10/07 03:23:45;;;;;;;10.75;4.22;;;;;;;9.14;68.78;95658.09;5074182;28;20367;-74
2023/10/07 03:26:16;;;;;;;8.07;3.58;;;;;;;9.27;68.48;95658.13;5074669;28;20053;-74
2023/10/07 03:28:54;;;;;;;6.97;4.40;;;;;;;9.09;68.85;95646.34;5072817;28;20025;-74
2023/10/07 03:31:27;;;;;;;6.35;3.72;;;;;;;9.12;68.83;95651.34;5072585;28;20433;-74
2023/10/07 03:33:53;;;;;;;6.68;3.53;;;;;;;9.26;68.76;95659.06;5080629;28;20408;-74
2023/10/07 03:39:09;;;;;;;5.13;3.80;;;;;;;9.10;69.20;95635.03;5086031;28;20440;-74
2023/10/07 03:41:35;;;;;;;5.68;3.30;;;;;;;9.26;69.15;95651.28;5059498;28;20418;-73
2023/10/07 03:44:04;;;;;;;5.45;3.70;;;;;;;9.23;69.25;95638.50;5073801;28;20043;-74
2023/10/07 03:46:29;;;;;;;4.95;3.53;;;;;;;9.42;68.86;95658.91;5073080;28;20028;-74
2023/10/07 03:48:56;;;;;;;5.55;3.92;;;;;;;9.22;69.29;95657.59;5081233;28;20093;-74
2023/10/07 03:51:30;;;;;;;5.60;3.25;;;;;;;9.21;68.99;95645.56;5075547;28;20036;-74
2023/10/07 03:54:00;;;;;;;5.13;3.42;;;;;;;9.27;68.66;95654.69;5091945;28;20412;-74
2023/10/07 03:56:26;;;;;;;5.40;3.30;;;;;;;9.30;68.92;95641.53;5072260;28;20043;-74
2023/10/07 03:58:53;;;;;;;7.30;3.50;;;;;;;9.19;69.22;95657.78;5072142;28;20032;-74
2023/10/07 04:01:18;;;;;;;4.78;3.33;;;;;;;9.22;69.33;95649.84;5072004;28;20052;-74
2023/10/07 04:03:46;;;;;;;5.93;3.67;;;;;;;9.27;69.51;95659.88;5055362;28;20491;-73
2023/10/07 04:06:17;;;;;;;5.53;3.25;;;;;;;9.15;69.04;95640.75;5075230;28;20037;-74
2023/10/07 04:08:45;;;;;;;5.67;3.10;;;;;;;9.30;69.14;95664.88;5075718;28;20550;-74
2023/10/07 04:11:16;;;;;;;6.38;3.65;;;;;;;9.25;69.34;95666.91;5074528;28;20044;-74
2023/10/07 04:13:44;;;;;;;6.45;3.65;;;;;;;9.10;69.40;95643.63;5055230;28;20062;-74
2023/10/07 04:16:22;;;;;;;5.25;3.28;;;;;;;9.15;69.28;95640.75;5056170;28;20036;-74
2023/10/07 04:18:47;;;;;;;5.53;3.22;;;;;;;9.25;69.11;95662.59;5057084;28;20033;-74
2023/10/07 04:21:13;;;;;;;6.57;3.33;;;;;;;9.27;68.91;95670.25;5071626;28;20548;-74
2023/10/07 04:23:43;;;;;;;6.00;3.28;;;;;;;9.20;69.19;95664.66;5072814;28;20037;-74
2023/10/07 04:26:10;;;;;;;5.72;3.35;;;;;;;9.08;69.54;95655.03;5093171;28;20032;-74
2023/10/07 04:28:39;;;;;;;5.68;3.17;;;;;;;9.11;69.31;95660.03;5075313;28;20032;-74
2023/10/07 04:31:09;;;;;;;6.70;3.10;;;;;;;8.83;69.76;95635.88;5092981;28;20036;-74
2023/10/07 04:33:40;;;;;;;5.85;3.53;;;;;;;8.83;69.98;95648.84;5075740;28;20027;-74
2023/10/07 04:36:13;;;;;;;5.18;3.45;;;;;;;8.84;70.51;95645.31;5075850;28;20047;-74
2023/10/07 04:38:56;;;;;;;4.38;3.03;;;;;;;8.94;69.79;95630.84;5055868;28;20095;-74
2023/10/07 04:43:49;;;;;;;8.35;3.70;;;;;;;8.61;70.27;95620.84;5071622;28;20040;-74
2023/10/07 04:46:23;;;;;;;5.45;3.40;;;;;;;8.83;70.42;95654.00;5055628;28;20041;-74
2023/10/07 04:48:55;;;;;;;4.63;2.97;;;;;;;8.65;70.06;95613.72;5071250;28;20024;-74
2023/10/07 04:51:46;;;;;;;5.40;3.30;;;;;;;8.66;70.06;95623.13;5071138;28;20092;-74
2023/10/07 04:54:11;;;;;;;7.20;3.78;;;;;;;8.90;70.68;95660.47;5072847;28;20044;-74
2023/10/07 04:56:38;;;;;;;5.75;3.35;;;;;;;9.05;70.20;95650.03;5081224;28;20451;-74
2023/10/07 04:59:06;;;;;;;7.47;3.65;;;;;;;9.04;70.36;95653.59;5076951;28;20516;-74
2023/10/07 05:01:34;;;;;;;7.47;3.70;;;;;;;9.06;70.99;95668.09;5082768;28;20549;-74
2023/10/07 05:04:04;;;;;;;5.95;3.42;;;;;;;9.23;69.87;95669.63;5090917;28;20501;-74
2023/10/07 05:06:34;;;;;;;6.57;3.40;;;;;;;9.10;69.43;95654.00;5091027;28;20036;-74
2023/10/07 05:09:03;;;;;;;6.03;3.30;;;;;;;9.32;69.28;95679.41;5085626;28;20020;-74
2023/10/07 05:11:29;;;;;;;5.95;3.22;;;;;;;9.29;69.05;95652.84;5067221;28;20040;-74
2023/10/07 05:13:55;;;;;;;5.43;3.38;;;;;;;9.46;68.72;95675.09;5070607;28;20024;-74
2023/10/07 05:16:22;;;;;;;5.20;3.53;;;;;;;9.44;68.82;95674.34;5054109;28;20032;-74
2023/10/07 05:18:47;;;;;;;5.05;3.55;;;;;;;9.40;69.13;95677.16;5070841;28;20082;-74
2023/10/07 05:21:15;;;;;;;5.65;3.53;;;;;;;9.55;68.37;95682.28;5071177;28;20119;-74
2023/10/07 05:23:41;;;;;;;5.55;3.67;;;;;;;9.33;68.97;95682.81;5076266;28;20039;-74
2023/10/07 05:26:09;;;;;;;4.75;3.35;;;;;;;9.22;68.93;95678.34;5062529;28;20029;-74
2023/10/07 05:28:35;;;;;;;6.53;3.42;;;;;;;9.16;68.95;95670.94;5079644;28;20016;-74
2023/10/07 05:31:03;;;;;;;4.90;3.38;;;;;;;9.15;68.97;95664.94;5057217;28;20043;-74
2023/10/07 05:33:32;;;;;;;4.53;3.40;;;;;;;9.30;68.79;95694.22;5061273;28;20502;-74
2023/10/07 05:36:08;;;;;;;5.45;3.50;;;;;;;9.26;69.01;95697.94;5083599;28;20516;-74
2023/10/07 05:38:38;;;;;;;6.47;3.83;;;;;;;9.26;68.84;95689.34;5090123;28;20028;-74
2023/10/07 05:41:06;;;;;;;4.72;3.42;;;;;;;9.32;68.50;95682.00;5070428;28;20040;-74
2023/10/07 05:43:32;;;;;;;6.65;3.08;;;;;;;9.38;68.63;95696.31;5089586;28;20056;-73
2023/10/07 05:45:58;;;;;;;5.43;3.60;;;;;;;9.59;68.44;95714.88;5084883;28;20099;-74
2023/10/07 05:48:24;;;;;;;5.40;3.40;;;;;;;9.52;68.35;95705.81;5080299;28;20025;-73
2023/10/07 05:50:49;;;;;;;5.30;3.33;;;;;;;9.43;68.79;95711.59;5060440;28;20502;-74
2023/10/07 05:53:15;;;;;;;6.80;3.63;;;;;;;9.48;68.65;95704.38;5068158;28;20550;-73
2023/10/07 05:55:41;;;;;;;4.65;3.33;;;;;;;9.83;67.59;95707.25;5080514;28;20044;-74
2023/10/07 05:58:07;;;;;;;7.18;3.85;;;;;;;10.70;65.45;95704.00;5081011;28;20016;-74
2023/10/07 06:00:33;;;;;;;5.82;3.90;;;;;;;11.44;63.06;95711.78;5074592;28;20052;-74
2023/10/07 06:03:02;;;;;;;8.52;4.10;;;;;;;12.16;60.21;95696.09;5067815;28;20082;-74
2023/10/07 06:05:29;;;;;;;6.65;3.58;;;;;;;12.79;58.40;95712.19;5068581;28;20036;-74
2023/10/07 06:07:57;;;;;;;8.18;3.58;;;;;;;13.02;57.29;95709.56;5079869;28;20021;-74
2023/10/07 06:10:24;;;;;;;6.32;4.20;;;;;;;13.12;56.96;95713.94;5085803;28;20051;-74
2023/10/07 06:12:50;;;;;;;8.18;4.07;;;;;;;12.71;58.24;95719.75;5083644;28;20111;-74
2023/10/07 06:15:16;;;;;;;6.90;4.78;;;;;;;11.92;61.31;95716.97;5084148;28;20040;-73
2023/10/07 06:17:42;;;;;;;8.02;5.20;;;;;;;12.56;59.55;95710.50;5072933;28;20147;-74
2023/10/07 06:20:14;;;;;;;12.63;5.13;;;;;;;13.37;57.50;95707.63;5078510;28;20032;-75
2023/10/07 06:22:45;;;;;;;9.05;4.38;;;;;;;14.41;54.62;95705.28;5090186;28;20028;-75
2023/10/07 06:25:12;;;;;;;5.40;3.70;;;;;;;15.23;52.69;95699.16;5073282;28;20436;-75
2023/10/07 06:27:38;;;;;;;5.63;3.58;;;;;;;16.30;49.65;95694.84;5078849;28;20540;-75
2023/10/07 06:30:07;;;;;;;8.55;5.30;;;;;;;17.38;46.29;95696.94;5083419;28;20025;-75
2023/10/07 06:32:44;;;;;;;;;;;;;;;18.35;43.83;95694.53;5083540;28;20086;-75
2023/10/07 06:35:14;;;;;;;10.38;4.47;;;;;;;18.84;42.37;95690.44;5089112;28;20377;-75
2023/10/07 06:37:42;;;;;;;8.80;4.20;;;;;;;19.67;40.84;95697.69;5077742;28;20445;-75
2023/10/07 06:40:24;;;;;;;9.25;3.88;;;;;;;20.14;39.71;95704.97;5087512;28;20791;-75
2023/10/07 06:42:51;;;;;;;7.05;3.95;;;;;;;20.43;39.14;95693.91;5070753;28;20039;-75
2023/10/07 06:45:17;;;;;;;7.70;4.60;;;;;;;21.06;37.78;95681.78;5079430;28;20502;-76
2023/10/07 06:47:46;;;;;;;9.73;4.90;;;;;;;21.10;37.17;95701.56;5077216;28;20470;-76
2023/10/07 06:50:20;;;;;;;9.23;4.93;;;;;;;20.55;38.55;95690.97;5075905;28;20028;-75
2023/10/07 06:52:47;;;;;;;6.43;4.50;;;;;;;21.02;37.64;95696.28;5076378;28;20130;-76
2023/10/07 06:55:15;;;;;;;7.32;4.55;;;;;;;21.25;37.50;95698.19;5050612;28;20040;-75
2023/10/07 06:57:47;;;;;;;7.57;5.10;;;;;;;21.34;37.16;95703.28;5075947;28;20024;-75
2023/10/07 07:00:23;;;;;;;9.38;4.63;;;;;;;20.50;38.11;95686.16;5066165;28;20052;-75
2023/10/07 07:02:57;;;;;;;7.15;4.55;;;;;;;21.31;37.47;95689.56;5059165;28;20497;-75
2023/10/07 07:05:23;;;;;;;13.55;4.80;;;;;;;22.28;34.94;95690.81;5042919;28;20467;-75
2023/10/07 07:07:52;;;;;;;6.90;4.60;;;;;;;22.52;34.71;95681.84;5090132;28;20027;-75
2023/10/07 07:10:27;;;;;;;6.82;4.03;;;;;;;22.01;35.29;95683.44;5069677;28;20067;-75
2023/10/07 07:12:58;;;;;;;11.32;5.18;;;;;;;22.47;34.99;95660.38;5066263;28;20024;-75
2023/10/07 07:15:26;;;;;;;8.90;5.07;;;;;;;22.44;34.89;95681.09;5089006;28;20028;-75
2023/10/07 07:18:02;;;;;;;7.05;5.32;;;;;;;22.28;35.39;95674.13;5086658;28;20032;-75
2023/10/07 07:20:48;;;;;;;7.60;5.15;;;;;;;22.85;34.31;95675.41;5088118;28;20028;-75
2023/10/07 07:23:20;;;;;;;7.65;4.38;;;;;;;23.83;32.96;95663.59;5070542;28;20106;-75
2023/10/07 07:26:09;;;;;;;7.72;4.65;;;;;;;24.39;31.94;95676.16;5089099;28;20031;-75
2023/10/07 07:28:32;;;;;;;10.32;5.50;;;;;;;24.36;31.69;95661.41;5087459;28;20048;-75
2023/10/07 07:30:57;;;;;;;9.73;6.03;;;;;;;23.80;32.58;95675.41;5071947;28;20405;-75
2023/10/07 07:33:28;;;;;;;11.07;5.35;;;;;;;24.20;32.48;95677.63;5071510;28;20101;-75
2023/10/07 07:35:56;;;;;;;12.43;5.57;;;;;;;23.73;32.87;95671.84;5075468;28;20031;-75
2023/10/07 07:38:32;;;;;;;9.93;5.32;;;;;;;22.91;34.16;95678.13;5067761;28;20028;-75
2023/10/07 07:41:19;;;;;;;11.85;5.22;;;;;;;22.54;35.45;95684.31;5052863;28;20048;-75
2023/10/07 07:43:53;;;;;;;13.60;5.13;;;;;;;22.06;35.59;95681.03;5080032;28;20111;-75
2023/10/07 07:46:21;;;;;;;9.27;5.85;;;;;;;21.25;37.30;95672.59;5074010;28;20025;-75
2023/10/07 07:48:50;;;;;;;7.22;5.13;;;;;;;20.33;39.17;95660.78;5064502;28;20115;-76
2023/10/07 07:51:17;;;;;;;9.63;4.70;;;;;;;19.95;39.70;95668.41;5072090;28;20024;-76
2023/10/07 07:53:43;;;;;;;7.25;4.97;;;;;;;19.36;41.13;95656.09;5078367;28;20031;-75
2023/10/07 07:56:12;;;;;;;8.35;4.60;;;;;;;18.87;42.22;95665.59;5069919;28;20028;-75
2023/10/07 07:58:38;;;;;;;8.02;4.57;;;;;;;19.05;42.31;95671.59;5081827;28;20036;-75
2023/10/07 08:01:06;;;;;;;7.57;4.82;;;;;;;18.52;43.45;95655.00;5089175;28;20036;-74
2023/10/07 08:03:35;;;;;;;6.68;4.72;;;;;;;18.37;43.46;95666.28;5084184;28;20028;-74
2023/10/07 08:06:11;;;;;;;6.05;4.55;;;;;;;17.99;44.18;95642.00;5090517;28;20092;-76
2023/10/07 08:08:37;;;;;;;7.65;4.32;;;;;;;18.51;43.85;95665.72;5070497;28;20036;-71
2023/10/07 08:11:04;;;;;;;9.00;4.57;;;;;;;18.71;43.39;95653.97;5088188;28;20055;-73
2023/10/07 08:13:29;;;;;;;5.97;4.40;;;;;;;18.44;43.55;95664.66;5067298;28;20082;-72
2023/10/07 08:15:55;;;;;;;9.40;4.93;;;;;;;18.10;44.84;95652.28;5090147;28;20023;-72
2023/10/07 08:18:28;;;;;;;9.18;4.75;;;;;;;18.11;44.32;95656.56;5090275;28;20478;-73
2023/10/07 08:21:06;;;;;;;10.38;5.00;;;;;;;18.16;44.28;95664.81;5074414;28;20101;-73
2023/10/07 08:23:37;;;;;;;8.00;4.75;;;;;;;17.82;44.68;95662.06;5086012;28;20036;-77
2023/10/07 08:26:13;;;;;;;10.60;4.80;;;;;;;18.08;44.53;95660.34;5058335;28;20047;-78
2023/10/07 08:28:44;;;;;;;6.18;4.32;;;;;;;18.09;45.04;95653.25;5071927;28;20036;-75
2023/10/07 08:33:41;;;;;;;5.97;4.50;;;;;;;18.09;44.94;95654.09;5086211;28;20441;-75
2023/10/07 08:36:07;;;;;;;13.70;5.30;;;;;;;17.79;45.31;95636.91;5071004;28;20024;-75
2023/10/07 08:38:43;;;;;;;7.22;5.10;;;;;;;17.78;45.60;95650.19;5070169;28;20043;-75
2023/10/07 08:41:09;;;;;;;9.00;5.88;;;;;;;17.84;45.50;95649.63;5071415;28;20479;-75
2023/10/07 08:43:43;;;;;;;6.78;4.57;;;;;;;18.03;44.77;95622.34;5054812;28;20032;-75
2023/10/07 08:46:11;;;;;;;9.65;5.20;;;;;;;18.05;45.02;95636.97;5055905;28;20032;-75
2023/10/07 08:48:38;;;;;;;8.90;4.10;;;;;;;18.31;44.13;95625.66;5071380;28;20031;-75
2023/10/07 08:51:14;;;;;;;6.90;4.45;;;;;;;18.13;44.49;95628.31;5053314;28;20029;-76
2023/10/07 08:53:39;;;;;;;7.65;4.97;;;;;;;18.22;44.50;95629.19;5069377;28;20090;-75
2023/10/07 08:56:08;;;;;;;8.40;5.10;;;;;;;17.91;45.11;95624.34;5069158;28;20028;-75
2023/10/07 08:58:34;;;;;;;8.85;4.80;;;;;;;17.89;45.18;95620.25;5051806;28;20107;-75
2023/10/07 09:01:00;;;;;;;7.55;4.32;;;;;;;17.78;45.27;95623.91;5052072;28;20036;-75
2023/10/07 09:03:28;;;;;;;7.38;4.32;;;;;;;17.83;44.97;95617.25;5068769;28;20513;-75
2023/10/07 09:05:59;;;;;;;6.90;4.10;;;;;;;17.86;45.30;95611.69;5069580;28;20490;-76
2023/10/07 09:08:25;;;;;;;6.25;3.80;;;;;;;17.91;44.81;95615.66;5054686;28;20032;-75
2023/10/07 09:10:51;;;;;;;8.15;3.70;;;;;;;18.13;44.70;95611.72;5071980;28;20459;-76
2023/10/07 09:13:27;;;;;;;8.15;4.28;;;;;;;18.30;44.73;95608.19;5070999;28;20048;-74
2023/10/07 09:15:59;;;;;;;8.38;4.43;;;;;;;18.15;44.78;95597.44;5070784;28;20495;-75
2023/10/07 09:18:28;;;;;;;9.10;4.60;;;;;;;18.19;44.87;95601.41;5054473;28;20391;-75
2023/10/07 09:20:56;;;;;;;10.20;4.40;;;;;;;18.38;44.40;95605.63;5070626;28;20033;-75
2023/10/07 09:23:23;;;;;;;8.88;4.38;;;;;;;18.34;44.31;95614.81;5054319;28;20111;-75
2023/10/07 09:25:52;;;;;;;6.90;4.13;;;;;;;18.42;43.97;95606.16;5070548;28;20021;-76
2023/10/07 09:28:30;;;;;;;7.70;4.25;;;;;;;18.69;43.89;95607.75;5070488;28;20051;-76
2023/10/07 09:31:05;;;;;;;7.88;4.22;;;;;;;18.55;43.89;95593.38;5070544;28;20025;-76
2023/10/07 09:33:35;;;;;;;11.55;4.70;;;;;;;18.45;43.75;95608.47;5054463;28;20113;-75
2023/10/07 09:36:33;;;;;;;7.32;4.75;;;;;;;18.30;44.06;95611.69;5054201;28;20035;-76
2023/10/07 09:41:37;;;;;;;6.18;3.92;;;;;;;18.59;43.38;95596.53;5056528;28;20051;-75
2023/10/07 09:44:03;;;;;;;7.47;4.20;;;;;;;18.68;43.68;95606.94;5070583;28;20035;-75
2023/10/07 09:46:29;;;;;;;8.07;4.65;;;;;;;18.68;43.62;95595.56;5070690;28;20025;-75
2023/10/07 09:48:57;;;;;;;9.35;4.28;;;;;;;18.59;43.68;95592.09;5053743;28;20036;-75
2023/10/07 09:51:24;;;;;;;13.35;4.82;;;;;;;18.57;44.04;95593.22;5070306;28;20025;-75
2023/10/07 09:54:22;;;;;;;14.45;5.20;;;;;;;18.83;42.84;95580.84;5072008;28;20086;-75
2023/10/07 09:57:06;;;;;;;7.88;4.70;;;;;;;18.70;41.96;95596.25;5070509;28;20451;-75
2023/10/07 09:59:56;;;;;;;7.18;4.60;;;;;;;18.70;42.03;95583.91;5078914;28;20097;-75
2023/10/07 10:03:12;;;;;;;8.70;4.67;;;;;;;18.65;42.63;95580.09;5089640;28;20341;-75
2023/10/07 10:05:56;;;;;;;7.60;4.75;;;;;;;18.62;42.46;95575.97;5082003;28;20044;-75
2023/10/07 10:08:44;;;;;;;7.38;4.70;;;;;;;18.28;43.09;95568.91;5090060;28;20028;-75
2023/10/07 10:11:30;;;;;;;7.60;5.03;;;;;;;18.12;42.35;95546.97;5088955;28;20131;-75
2023/10/07 10:14:09;;;;;;;8.80;4.50;;;;;;;18.34;42.23;95562.22;5075087;28;20038;-75
2023/10/07 10:16:44;;;;;;;7.97;4.10;;;;;;;18.50;42.69;95554.41;5091166;28;20058;-75
2023/10/07 10:19:22;;;;;;;9.93;5.07;;;;;;;18.55;42.46;95553.91;5058132;28;20502;-75
2023/10/07 10:21:50;;;;;;;5.43;3.60;;;;;;;18.69;41.35;95540.19;5075327;28;20031;-76
2023/10/07 10:24:15;;;;;;;8.20;4.63;;;;;;;18.68;41.72;95535.06;5073506;28;20036;-75
2023/10/07 10:26:41;;;;;;;7.05;4.80;;;;;;;18.70;42.03;95533.91;5072610;28;20414;-75
2023/10/07 10:29:15;;;;;;;9.57;4.75;;;;;;;18.64;42.00;95516.16;5091963;28;20078;-75
2023/10/07 10:31:51;;;;;;;6.57;4.60;;;;;;;18.82;41.74;95523.94;5090201;28;20104;-75
2023/10/07 10:34:16;;;;;;;7.22;4.55;;;;;;;18.77;42.21;95510.44;5090304;28;20024;-76
2023/10/07 10:36:48;;;;;;;8.35;4.60;;;;;;;19.02;41.45;95513.13;5090490;28;20028;-76
2023/10/07 10:39:26;;;;;;;8.68;4.43;;;;;;;19.07;41.34;95503.75;5059504;28;20028;-75
2023/10/07 10:41:53;;;;;;;8.73;4.70;;;;;;;18.98;40.91;95502.91;5056863;28;20573;-75
2023/10/07 10:44:20;;;;;;;6.40;4.18;;;;;;;18.83;41.28;95478.22;5073340;28;20555;-75
2023/10/07 10:46:47;;;;;;;6.88;4.30;;;;;;;18.98;40.69;95491.56;5073700;28;20091;-75
2023/10/07 10:49:20;;;;;;;6.07;3.97;;;;;;;19.05;40.54;95486.47;5090150;28;20059;-75
2023/10/07 10:51:48;;;;;;;8.05;4.55;;;;;;;18.98;40.84;95455.53;5073589;28;20395;-75
2023/10/07 10:54:23;;;;;;;9.38;4.63;;;;;;;19.09;40.30;95464.94;5056889;28;20060;-76
2023/10/07 10:56:49;;;;;;;8.75;4.28;;;;;;;19.22;40.69;95467.06;5089990;28;20028;-75
2023/10/07 10:59:16;;;;;;;6.75;4.15;;;;;;;19.63;39.23;95449.41;5090053;28;20028;-75
2023/10/07 11:01:44;;;;;;;10.90;4.00;;;;;;;19.35;39.91;95424.44;5058181;28;20089;-76
2023/10/07 11:04:12;;;;;;;7.18;4.30;;;;;;;19.51;39.99;95456.03;5094144;28;20130;-76
2023/10/07 11:06:39;;;;;;;6.50;4.28;;;;;;;19.53;40.40;95451.41;5093066;28;20022;-75
2023/10/07 11:09:04;;;;;;;7.43;3.88;;;;;;;19.82;39.01;95450.06;5060051;28;20153;-76
2023/10/07 11:11:30;;;;;;;7.80;4.15;;;;;;;19.58;39.23;95435.91;5058224;28;20493;-76
2023/10/07 11:13:56;;;;;;;10.15;4.15;;;;;;;19.51;39.67;95405.16;5092200;28;20094;-76
2023/10/07 11:16:22;;;;;;;7.45;4.32;;;;;;;19.84;39.02;95429.66;5076531;28;20054;-76
2023/10/07 11:18:49;;;;;;;6.80;4.50;;;;;;;19.82;39.00;95407.91;5093948;28;20068;-75
2023/10/07 11:21:17;;;;;;;8.13;4.13;;;;;;;20.01;38.07;95415.41;5093652;28;20146;-76
2023/10/07 11:23:55;;;;;;;8.07;4.10;;;;;;;19.91;37.93;95404.22;5060752;28;20031;-76
2023/10/07 11:26:21;;;;;;;6.80;3.63;;;;;;;20.10;37.84;95418.84;5077939;28;20028;-76
2023/10/07 11:28:49;;;;;;;8.55;3.90;;;;;;;20.09;38.05;95417.19;5076631;28;20092;-76
2023/10/07 11:31:20;;;;;;;6.80;3.65;;;;;;;20.20;37.86;95413.38;5094743;28;20024;-76
2023/10/07 11:33:52;;;;;;;10.43;4.28;;;;;;;20.15;38.16;95411.25;5077632;28;20028;-76
2023/10/07 11:36:17;;;;;;;8.85;3.85;;;;;;;20.07;37.38;95375.16;5076601;28;20020;-76
2023/10/07 11:38:43;;;;;;;7.80;3.80;;;;;;;20.27;37.70;95393.22;5094856;28;20036;-76
2023/10/07 11:41:10;;;;;;;7.57;3.92;;;;;;;20.33;37.97;95389.88;5093061;28;20033;-76
2023/10/07 11:43:43;;;;;;;6.50;3.88;;;;;;;20.42;37.73;95394.13;5094599;28;20066;-75
2023/10/07 11:46:11;;;;;;;6.65;4.18;;;;;;;20.47;37.80;95365.38;5076514;28;20413;-76
2023/10/07 11:48:41;;;;;;;7.32;4.20;;;;;;;20.36;37.73;95386.06;5093292;28;20036;-76
2023/10/07 11:51:07;;;;;;;7.35;4.10;;;;;;;20.35;37.50;95373.88;5060446;28;20502;-76
2023/10/07 11:53:32;;;;;;;6.72;4.03;;;;;;;20.57;37.46;95393.41;5059518;28;20047;-76
2023/10/07 11:55:57;;;;;;;10.27;4.57;;;;;;;20.47;36.53;95383.03;5093205;28;20414;-76
2023/10/07 11:58:24;;;;;;;7.70;4.30;;;;;;;20.60;37.51;95379.88;5076402;28;20390;-76
2023/10/07 12:00:50;;;;;;;10.00;4.60;;;;;;;20.41;37.09;95342.34;5093904;28;20052;-76
2023/10/07 12:03:17;;;;;;;10.35;4.57;;;;;;;20.65;36.80;95373.06;5076211;28;20042;-76
2023/10/07 12:05:43;;;;;;;11.10;4.80;;;;;;;20.64;36.93;95373.22;5073703;28;20036;-76
2023/10/07 12:08:12;;;;;;;10.18;4.78;;;;;;;20.73;37.01;95366.91;5059263;28;20032;-75
2023/10/07 12:10:37;;;;;;;7.07;4.30;;;;;;;20.75;36.92;95365.75;5067395;28;20082;-76
2023/10/07 12:13:07;;;;;;;7.85;4.50;;;;;;;20.72;37.69;95357.34;5074145;28;20111;-76